ASN logo
ASN Wikibase Occurrence # 211294
Last updated: 10 September 2021
This information is added by users of ASN. Neither ASN nor the Flight Safety Foundation are responsible for the completeness or correctness of this information. If you feel this information is incomplete or incorrect, you can submit corrected information.

Date:21-MAY-2018
Time:11:20 UTC
Type:Silhouette image of generic AT72 model; specific model in this crash may look slightly different
ATR 72-600 (72-212A)
Owner/operator:Air India Regional, opb Alliance Air
Registration: VT-AIX
MSN: 1268
Fatalities:Fatalities: 0 / Occupants: 70
Other fatalities:0
Aircraft damage: None
Location:Shirdi Airport (SAG/VASD) -   India
Phase: Landing
Nature:Passenger - Scheduled
Departure airport:Mumbai-Chhatrapati Shivaji International Airport (BOM/VABB)
Destination airport:Shirdi Airport (SAG/VASD)
Narrative:
Air India Regional flight 9I653 suffered a runway excursion after landing at Shirdi Airport, India. The aircraft came to rest 50 m past the end of the runway.
The airport has a single 2,500 m asphalt runway.

Weather at the airport about the time of the incident (1120Z / 16:50 LT):
VASD 211200Z 31008KT 6000 NSC 38/20 Q1008 NOSIG
VASD 211130Z 32011KT 6000 NSC 39/20 Q1007 NOSIG
VASD 211100Z 33006KT 6000 NSC 40/20 Q1007 NOSIG


Sources:

https://www.hindustantimes.com/mumbai-news/close-shave-for-passengers-as-plane-with-70-passengers-overshoots-shirdi-runway/story-5R07KbQAshN8GJmb4jdSFP.html

Other occurrences involving this aircraft

26 Jan 2019 VT-AIX Air India Regional, opb Alliance Air 0 Diu Airport (DIU) min
Tailstrike.

Media:


Revision history:

Date/timeContributorUpdates
21-May-2018 20:48 harro Added
21-May-2018 20:48 harro Updated [Embed code]

Corrections or additions? ... Edit this accident description